Time;durP1;ratioP1;P1;durP2;ratioP2;P2;SDS_P1;SDS_P2;PMS_P1;PMS_P2;Temp;Humidity;BMP_temperature;BMP_pressure;BME280_temperature;BME280_humidity;BME280_pressure;Samples;Min_cycle;Max_cycle;Signal;HPM_P1;HPM_P2
2023/01/23 00:00:55;;;;;;;26.77;14.23;;;1.30;92.50;;;;;;5033209;28;20182;-76
2023/01/23 00:03:21;;;;;;;27.02;13.82;;;1.30;92.50;;;;;;5030312;28;20177;-76
2023/01/23 00:05:56;;;;;;;24.57;12.53;;;1.30;92.60;;;;;;5029012;28;20192;-77
2023/01/23 00:08:22;;;;;;;33.17;15.50;;;1.40;92.70;;;;;;5020298;28;20641;-74
2023/01/23 00:10:48;;;;;;;25.80;13.63;;;1.40;92.70;;;;;;5022772;28;20273;-75
2023/01/23 00:13:13;;;;;;;26.83;13.87;;;1.40;92.60;;;;;;5033613;28;20632;-75
2023/01/23 00:15:39;;;;;;;30.27;13.43;;;1.40;92.60;;;;;;5031014;28;20604;-77
2023/01/23 00:18:04;;;;;;;28.47;15.27;;;1.30;92.50;;;;;;5026247;28;20274;-75
2023/01/23 00:20:30;;;;;;;25.00;13.33;;;1.20;92.50;;;;;;5024426;28;20420;-76
2023/01/23 00:22:55;;;;;;;26.30;12.90;;;1.20;92.60;;;;;;5024957;28;20192;-76
2023/01/23 00:25:21;;;;;;;28.37;14.33;;;1.20;92.70;;;;;;5022650;28;20220;-77
2023/01/23 00:27:47;;;;;;;27.00;14.10;;;1.20;92.70;;;;;;5025750;28;20185;-76
2023/01/23 00:30:12;;;;;;;27.80;14.23;;;1.20;92.80;;;;;;5030116;28;20579;-76
2023/01/23 00:32:38;;;;;;;28.03;14.23;;;1.20;92.80;;;;;;5030832;28;20201;-76
2023/01/23 00:35:04;;;;;;;31.20;13.17;;;1.20;92.80;;;;;;5035013;28;20181;-76
2023/01/23 00:37:29;;;;;;;25.53;12.17;;;1.20;92.80;;;;;;5026215;28;20181;-76
2023/01/23 00:39:55;;;;;;;26.17;11.63;;;1.20;92.80;;;;;;5032680;28;20462;-76
2023/01/23 00:42:21;;;;;;;25.60;13.23;;;1.30;92.80;;;;;;5036351;28;20284;-77
2023/01/23 00:44:46;;;;;;;24.57;12.63;;;1.30;92.70;;;;;;5033609;28;20192;-76
2023/01/23 00:47:12;;;;;;;28.07;12.93;;;1.30;92.60;;;;;;5033955;28;20251;-77
2023/01/23 00:49:37;;;;;;;31.57;14.40;;;1.40;92.50;;;;;;5027445;28;20244;-76
2023/01/23 00:52:03;;;;;;;28.93;13.70;;;1.40;92.40;;;;;;5030981;28;20197;-76
2023/01/23 00:54:28;;;;;;;26.03;13.07;;;1.40;92.40;;;;;;5030595;28;20186;-77
2023/01/23 00:56:54;;;;;;;33.40;13.70;;;1.40;92.40;;;;;;5029695;28;20191;-77
2023/01/23 00:59:20;;;;;;;25.17;12.33;;;1.30;92.20;;;;;;5031439;28;20205;-77
2023/01/23 01:01:45;;;;;;;24.67;12.30;;;1.40;92.20;;;;;;5029611;28;20181;-78
2023/01/23 01:04:11;;;;;;;24.53;12.70;;;1.40;92.20;;;;;;5026314;28;20201;-77
2023/01/23 01:06:36;;;;;;;26.70;12.57;;;1.40;92.10;;;;;;5030717;28;20185;-77
2023/01/23 01:09:03;;;;;;;25.03;13.00;;;1.40;92.10;;;;;;5030179;28;20202;-78
2023/01/23 01:11:29;;;;;;;25.80;12.07;;;1.40;92.20;;;;;;5034444;28;20205;-77
2023/01/23 01:13:55;;;;;;;20.90;12.30;;;1.40;92.30;;;;;;5033277;28;20202;-76
2023/01/23 01:16:23;;;;;;;26.63;12.80;;;1.40;92.30;;;;;;5035652;28;20508;-76
2023/01/23 01:18:48;;;;;;;23.52;12.38;;;1.50;92.20;;;;;;5025485;28;20206;-76
2023/01/23 01:21:16;;;;;;;23.60;11.70;;;1.50;92.00;;;;;;5027838;28;20184;-75
2023/01/23 01:23:42;;;;;;;22.17;11.15;;;1.50;91.90;;;;;;5029439;28;20189;-77
2023/01/23 01:26:08;;;;;;;22.90;11.67;;;1.50;91.80;;;;;;5029359;28;20189;-77
2023/01/23 01:28:37;;;;;;;21.45;10.75;;;1.60;91.70;;;;;;5027098;28;20206;-76
2023/01/23 01:31:06;;;;;;;21.23;11.43;;;1.60;91.50;;;;;;5033563;28;20192;-77
2023/01/23 01:33:33;;;;;;;27.92;12.50;;;1.60;91.30;;;;;;5035662;28;20532;-77
2023/01/23 01:35:59;;;;;;;29.35;12.55;;;1.60;91.10;;;;;;5030868;28;20235;-76
2023/01/23 01:38:25;;;;;;;24.95;11.65;;;1.70;91.00;;;;;;5023348;28;20208;-76
2023/01/23 01:40:51;;;;;;;21.30;10.43;;;1.70;90.90;;;;;;5023870;28;20600;-78
2023/01/23 01:43:24;;;;;;;26.87;12.37;;;1.70;90.90;;;;;;5024198;28;20751;-75
2023/01/23 01:46:09;;;;;;;25.48;11.27;;;1.70;90.80;;;;;;5027202;28;20995;-78
2023/01/23 01:48:41;;;;;;;22.70;10.38;;;1.70;90.70;;;;;;5026260;28;20205;-76
2023/01/23 01:51:15;;;;;;;24.58;12.48;;;1.70;90.70;;;;;;5022919;28;20171;-77
2023/01/23 01:53:42;;;;;;;21.90;11.57;;;1.50;90.30;;;;;;5024515;28;20647;-76
2023/01/23 01:56:10;;;;;;;20.02;11.20;;;1.50;90.40;;;;;;5028741;28;20530;-78
2023/01/23 01:58:37;;;;;;;22.50;10.88;;;1.50;90.60;;;;;;5026216;28;20359;-78
2023/01/23 02:01:03;;;;;;;18.77;11.05;;;1.50;90.80;;;;;;5031385;28;20192;-77
2023/01/23 02:03:29;;;;;;;24.47;11.10;;;1.50;90.80;;;;;;5026478;28;20181;-78
2023/01/23 02:05:54;;;;;;;23.50;11.07;;;1.60;90.80;;;;;;5025658;28;20178;-77
2023/01/23 02:08:32;;;;;;;22.00;10.60;;;1.60;90.80;;;;;;5032957;28;20363;-79
2023/01/23 02:11:00;;;;;;;19.27;10.85;;;1.60;90.80;;;;;;5025228;28;20178;-76
2023/01/23 02:13:31;;;;;;;23.50;11.25;;;1.70;90.80;;;;;;5027359;28;20236;-78
2023/01/23 02:15:58;;;;;;;21.85;10.80;;;1.70;90.80;;;;;;5021546;28;20189;-78
2023/01/23 02:18:25;;;;;;;25.02;11.45;;;1.70;90.70;;;;;;5032480;28;20205;-78
2023/01/23 02:20:53;;;;;;;23.23;12.20;;;1.70;90.50;;;;;;5028450;28;20177;-77
2023/01/23 02:23:57;;;;;;;25.00;11.85;;;1.70;90.30;;;;;;5032616;28;20185;-76
2023/01/23 02:26:31;;;;;;;21.40;10.75;;;1.60;90.30;;;;;;5029078;28;20181;-76
2023/01/23 02:28:58;;;;;;;26.58;12.38;;;1.60;90.40;;;;;;5023224;28;20560;-76
2023/01/23 02:31:25;;;;;;;21.40;10.82;;;1.50;90.40;;;;;;5029042;28;20695;-76
2023/01/23 02:33:53;;;;;;;24.88;11.68;;;1.50;90.40;;;;;;5030770;28;20201;-76
2023/01/23 02:36:22;;;;;;;21.98;11.45;;;1.50;90.60;;;;;;5034808;28;20649;-76
2023/01/23 02:39:16;;;;;;;22.65;11.43;;;1.50;90.60;;;;;;5026256;28;20206;-75
2023/01/23 02:41:51;;;;;;;24.80;12.23;;;1.50;90.70;;;;;;5025228;28;20306;-76
2023/01/23 02:44:25;;;;;;;21.70;11.07;;;1.50;90.80;;;;;;5026702;28;20177;-76
2023/01/23 02:46:52;;;;;;;27.02;12.20;;;1.50;90.90;;;;;;5026713;28;20241;-76
2023/01/23 02:49:19;;;;;;;20.42;11.93;;;1.50;91.00;;;;;;5020462;28;20213;-75
2023/01/23 02:51:44;;;;;;;27.75;13.20;;;1.60;91.10;;;;;;5022077;28;20205;-74
2023/01/23 02:54:10;;;;;;;24.93;11.60;;;1.50;91.10;;;;;;5026270;28;20188;-75
2023/01/23 02:56:35;;;;;;;22.87;11.53;;;1.50;90.90;;;;;;5022052;28;20195;-75
2023/01/23 03:01:45;;;;;;;24.98;12.50;;;1.50;91.10;;;;;;5025478;28;20196;-75
2023/01/23 03:04:11;;;;;;;25.97;12.50;;;1.50;91.10;;;;;;5028291;28;20181;-76
2023/01/23 03:06:37;;;;;;;23.20;11.60;;;1.50;91.10;;;;;;5020773;28;20280;-75
2023/01/23 03:09:06;;;;;;;23.70;12.97;;;1.50;91.20;;;;;;5025970;28;20219;-75
2023/01/23 03:11:32;;;;;;;31.27;12.98;;;1.50;91.30;;;;;;5023916;28;20471;-76
2023/01/23 03:13:58;;;;;;;27.33;13.88;;;1.40;91.20;;;;;;5030539;28;20182;-75
2023/01/23 03:16:23;;;;;;;28.03;13.20;;;1.40;91.50;;;;;;5027391;28;20181;-76
2023/01/23 03:18:49;;;;;;;22.23;12.03;;;1.50;91.60;;;;;;5026422;28;20198;-76
2023/01/23 03:21:18;;;;;;;26.77;13.43;;;1.40;91.60;;;;;;5029144;28;20185;-76
2023/01/23 03:23:45;;;;;;;26.42;12.63;;;1.40;91.60;;;;;;5026171;28;20267;-75
2023/01/23 03:26:20;;;;;;;25.88;12.45;;;1.50;91.70;;;;;;5028501;28;20205;-76
2023/01/23 03:31:29;;;;;;;25.05;11.93;;;1.50;91.70;;;;;;5027362;28;20354;-77
2023/01/23 03:33:55;;;;;;;28.07;13.20;;;1.50;91.50;;;;;;5024181;28;20204;-75
2023/01/23 03:36:20;;;;;;;23.13;12.30;;;1.40;91.20;;;;;;5026263;28;20189;-75
2023/01/23 03:41:30;;;;;;;29.30;13.60;;;1.40;91.50;;;;;;5024421;28;20200;-74
2023/01/23 03:43:56;;;;;;;26.70;12.90;;;1.40;91.50;;;;;;5029873;28;20178;-74
2023/01/23 03:46:22;;;;;;;29.00;12.87;;;1.40;91.50;;;;;;5024912;28;20314;-76
2023/01/23 03:48:47;;;;;;;25.17;12.40;;;1.40;91.50;;;;;;5021583;28;21005;-77
2023/01/23 03:51:13;;;;;;;24.57;13.10;;;1.40;91.60;;;;;;5027632;28;20837;-76
2023/01/23 03:53:38;;;;;;;27.87;13.10;;;1.50;91.60;;;;;;5023286;28;20181;-76
2023/01/23 03:56:05;;;;;;;27.87;13.53;;;1.50;91.50;;;;;;5025474;28;20185;-77
2023/01/23 03:58:30;;;;;;;25.63;12.73;;;1.50;91.50;;;;;;5023220;28;20220;-76
2023/01/23 04:00:56;;;;;;;25.03;13.43;;;1.50;91.20;;;;;;5024771;28;20188;-76
2023/01/23 04:03:22;;;;;;;27.80;12.60;;;1.50;91.20;;;;;;5025496;28;20212;-77
2023/01/23 04:05:47;;;;;;;27.77;13.50;;;1.50;91.20;;;;;;5031832;28;20190;-75
2023/01/23 04:08:13;;;;;;;30.23;13.00;;;1.50;91.20;;;;;;5031661;28;20191;-76
2023/01/23 04:10:38;;;;;;;36.50;15.50;;;1.60;91.20;;;;;;5031240;28;20185;-76
2023/01/23 04:13:04;;;;;;;29.90;14.23;;;1.50;91.00;;;;;;5028975;28;20236;-75
2023/01/23 04:15:32;;;;;;;30.73;13.47;;;1.50;90.90;;;;;;5039395;28;20178;-75
2023/01/23 04:17:57;;;;;;;28.90;13.50;;;1.60;90.90;;;;;;5035690;28;20243;-76
2023/01/23 04:20:23;;;;;;;31.50;13.80;;;1.60;90.90;;;;;;5031428;28;20189;-76
2023/01/23 04:22:49;;;;;;;26.97;12.93;;;1.50;90.80;;;;;;5038034;28;20255;-75
2023/01/23 04:25:14;;;;;;;30.53;13.37;;;1.50;90.90;;;;;;5032765;28;21116;-76
2023/01/23 04:27:40;;;;;;;33.47;13.77;;;1.50;90.80;;;;;;5031681;28;20191;-77
2023/01/23 04:30:06;;;;;;;26.33;13.63;;;1.50;90.70;;;;;;5029004;28;20217;-75
2023/01/23 04:32:32;;;;;;;31.02;13.55;;;1.50;90.80;;;;;;5030332;28;20205;-76
2023/01/23 04:34:57;;;;;;;27.17;12.93;;;1.60;90.80;;;;;;5026961;28;20235;-76
2023/01/23 04:37:23;;;;;;;28.77;12.97;;;1.60;90.80;;;;;;5028506;28;20173;-76
2023/01/23 04:39:48;;;;;;;24.90;12.50;;;1.60;90.80;;;;;;5029866;28;20204;-76
2023/01/23 04:42:14;;;;;;;28.80;13.70;;;1.60;90.70;;;;;;5028741;28;20192;-76
2023/01/23 04:44:39;;;;;;;32.47;14.20;;;1.60;90.60;;;;;;5028084;28;20177;-77
2023/01/23 04:47:05;;;;;;;25.80;13.40;;;1.60;90.80;;;;;;5031539;28;20182;-77
2023/01/23 04:49:31;;;;;;;26.57;13.10;;;1.60;90.70;;;;;;5024947;28;20243;-77
2023/01/23 04:51:56;;;;;;;31.20;13.00;;;1.60;90.70;;;;;;5032843;28;20259;-76
2023/01/23 04:54:22;;;;;;;31.87;14.03;;;1.60;90.70;;;;;;5028679;28;20193;-76
2023/01/23 04:56:48;;;;;;;26.80;13.17;;;1.60;90.80;;;;;;5033981;28;20696;-77
2023/01/23 04:59:14;;;;;;;32.03;14.80;;;1.60;90.60;;;;;;5031360;28;20219;-77
2023/01/23 05:01:40;;;;;;;29.50;14.07;;;1.50;90.50;;;;;;5033283;28;20506;-77
2023/01/23 05:04:06;;;;;;;31.08;13.48;;;1.50;90.60;;;;;;5031260;28;20229;-75
2023/01/23 05:06:31;;;;;;;25.83;13.27;;;1.50;90.70;;;;;;5031165;28;20181;-76
2023/01/23 05:08:57;;;;;;;28.73;13.03;;;1.50;90.70;;;;;;5024956;28;20621;-77
2023/01/23 05:11:23;;;;;;;26.33;12.83;;;1.50;90.80;;;;;;5033197;28;20627;-77
2023/01/23 05:13:49;;;;;;;29.00;12.90;;;1.60;90.90;;;;;;5030157;28;20209;-77
2023/01/23 05:16:15;;;;;;;32.57;13.53;;;1.60;90.90;;;;;;5033228;28;20942;-77
2023/01/23 05:18:40;;;;;;;30.20;13.15;;;1.60;90.60;;;;;;5029044;28;20205;-77
2023/01/23 05:21:06;;;;;;;29.70;12.60;;;1.70;90.70;;;;;;5032895;28;20232;-78
2023/01/23 05:23:32;;;;;;;28.07;12.67;;;1.70;90.70;;;;;;5029037;28;20185;-76
2023/01/23 05:25:57;;;;;;;28.47;13.47;;;1.70;90.60;;;;;;5032658;28;20205;-76
2023/01/23 05:28:23;;;;;;;28.07;13.23;;;1.70;90.40;;;;;;5031016;28;20235;-76
2023/01/23 05:30:48;;;;;;;32.53;14.63;;;1.70;90.30;;;;;;5026910;28;20268;-76
2023/01/23 05:33:14;;;;;;;28.50;13.10;;;1.70;90.30;;;;;;5027582;28;20216;-76
2023/01/23 05:35:40;;;;;;;25.90;11.50;;;1.80;90.30;;;;;;5028828;28;20189;-77
2023/01/23 05:38:05;;;;;;;34.13;15.77;;;1.80;90.30;;;;;;5023130;28;20640;-76
2023/01/23 05:40:31;;;;;;;26.50;12.60;;;1.70;90.10;;;;;;5031849;28;20272;-76
2023/01/23 05:42:57;;;;;;;32.55;13.65;;;1.60;90.10;;;;;;5031112;28;20644;-76
2023/01/23 05:45:22;;;;;;;27.87;12.73;;;1.60;90.30;;;;;;5027454;28;20198;-77
2023/01/23 05:47:48;;;;;;;26.60;11.80;;;1.60;90.40;;;;;;5029415;28;20725;-76
2023/01/23 05:50:16;;;;;;;31.97;14.50;;;1.60;90.50;;;;;;5028991;28;20216;-76
2023/01/23 05:52:42;;;;;;;26.95;13.77;;;1.60;90.60;;;;;;5028954;28;20222;-76
2023/01/23 05:55:08;;;;;;;28.33;13.43;;;1.60;90.60;;;;;;5031251;28;20174;-77
2023/01/23 05:57:34;;;;;;;28.33;15.20;;;1.70;90.60;;;;;;5025885;28;20468;-76
2023/01/23 05:59:59;;;;;;;32.25;14.02;;;1.70;90.60;;;;;;5030208;28;20267;-76
2023/01/23 06:02:25;;;;;;;28.53;13.50;;;1.70;90.70;;;;;;5032010;28;20185;-76
2023/01/23 06:04:51;;;;;;;31.00;13.00;;;1.80;90.70;;;;;;5033151;28;20645;-76
2023/01/23 06:07:25;;;;;;;26.57;13.50;;;1.80;90.70;;;;;;5026117;28;20197;-76
2023/01/23 06:09:51;;;;;;;32.35;13.95;;;1.90;90.50;;;;;;5031167;28;20201;-75
2023/01/23 06:12:17;;;;;;;27.57;12.73;;;1.80;90.50;;;;;;5026069;28;20220;-76
2023/01/23 06:14:42;;;;;;;26.30;12.07;;;1.80;90.50;;;;;;5031331;28;20213;-76
2023/01/23 06:17:12;;;;;;;25.83;11.57;;;1.80;90.40;;;;;;5026514;28;20189;-76
2023/01/23 06:19:37;;;;;;;26.88;12.00;;;1.90;90.30;;;;;;5027510;28;20296;-76
2023/01/23 06:22:03;;;;;;;29.20;13.80;;;1.90;90.00;;;;;;5027241;28;20711;-77
2023/01/23 06:24:29;;;;;;;30.67;13.20;;;1.80;89.70;;;;;;5029475;28;20193;-76
2023/01/23 06:26:54;;;;;;;27.33;12.20;;;1.70;89.70;;;;;;5027834;28;20189;-76
2023/01/23 06:29:20;;;;;;;25.60;12.10;;;1.70;90.10;;;;;;5027036;28;20210;-77
2023/01/23 06:31:46;;;;;;;28.60;13.40;;;1.70;90.10;;;;;;5028092;28;20700;-76
2023/01/23 06:34:12;;;;;;;29.55;12.80;;;1.70;90.10;;;;;;5023991;28;20182;-76
2023/01/23 06:36:39;;;;;;;32.38;12.55;;;1.80;90.10;;;;;;5027218;28;20292;-76
2023/01/23 06:39:04;;;;;;;26.20;12.65;;;1.80;90.10;;;;;;5026936;28;20613;-77
2023/01/23 06:41:30;;;;;;;30.07;13.57;;;1.70;90.10;;;;;;5029184;28;20181;-78
2023/01/23 06:43:56;;;;;;;31.07;11.97;;;1.80;90.10;;;;;;5025658;28;20219;-76
2023/01/23 06:46:22;;;;;;;33.60;13.82;;;1.80;90.10;;;;;;5030197;28;20718;-76
2023/01/23 06:48:48;;;;;;;31.53;13.70;;;1.80;89.90;;;;;;5024792;28;20246;-75
2023/01/23 06:51:13;;;;;;;30.97;13.70;;;1.70;89.70;;;;;;5023195;28;20184;-76
2023/01/23 06:53:39;;;;;;;28.97;12.30;;;1.70;89.90;;;;;;5029599;28;20698;-77
2023/01/23 06:56:06;;;;;;;30.17;13.40;;;1.70;89.90;;;;;;5028274;28;20173;-77
2023/01/23 06:58:33;;;;;;;26.63;12.00;;;1.60;89.90;;;;;;5026257;28;20248;-77
2023/01/23 07:00:59;;;;;;;25.67;12.05;;;1.60;90.00;;;;;;5031821;28;20182;-76
2023/01/23 07:03:24;;;;;;;29.90;13.50;;;1.50;90.10;;;;;;5030073;28;20189;-76
2023/01/23 07:05:50;;;;;;;28.03;13.63;;;1.60;90.30;;;;;;5030525;28;20415;-75
2023/01/23 07:08:16;;;;;;;31.97;13.20;;;1.70;90.50;;;;;;5027448;28;20540;-77
2023/01/23 07:10:42;;;;;;;30.60;12.30;;;1.70;90.50;;;;;;5030260;28;20617;-76
2023/01/23 07:13:10;;;;;;;31.37;13.07;;;1.80;90.40;;;;;;5028865;28;20209;-76
2023/01/23 07:15:35;;;;;;;31.83;13.45;;;1.80;90.30;;;;;;5027962;28;20181;-77
2023/01/23 07:18:02;;;;;;;30.70;13.93;;;1.80;90.20;;;;;;5024349;28;20180;-77
2023/01/23 07:20:28;;;;;;;33.00;12.45;;;1.80;90.00;;;;;;5026819;28;20443;-76
2023/01/23 07:22:54;;;;;;;33.53;12.67;;;1.80;89.90;;;;;;5027039;28;20180;-77
2023/01/23 07:25:21;;;;;;;30.58;13.35;;;1.70;89.60;;;;;;5029570;28;20481;-76
2023/01/23 07:27:47;;;;;;;28.17;13.88;;;1.70;89.90;;;;;;5027803;28;20189;-75
2023/01/23 07:30:14;;;;;;;30.90;13.43;;;1.70;90.10;;;;;;5026202;28;20727;-75
2023/01/23 07:32:39;;;;;;;31.60;13.00;;;1.70;89.90;;;;;;5024964;28;20307;-74
2023/01/23 07:35:06;;;;;;;30.60;13.07;;;1.70;90.20;;;;;;5027467;28;20205;-73
2023/01/23 07:37:31;;;;;;;27.50;12.23;;;1.70;90.30;;;;;;5023331;28;20177;-74
2023/01/23 07:39:57;;;;;;;30.30;13.20;;;1.70;90.30;;;;;;5022447;28;20231;-74
2023/01/23 07:42:22;;;;;;;30.07;13.20;;;1.80;90.20;;;;;;5029390;28;20182;-74
2023/01/23 07:44:48;;;;;;;22.70;11.47;;;1.80;90.10;;;;;;5028447;28;20660;-73
2023/01/23 07:47:14;;;;;;;35.40;15.70;;;1.80;90.20;;;;;;5028435;28;20268;-76
2023/01/23 07:49:39;;;;;;;25.83;12.40;;;1.90;90.10;;;;;;5021149;28;20201;-76
2023/01/23 07:52:05;;;;;;;33.87;14.97;;;1.90;89.90;;;;;;5024856;28;20204;-74
2023/01/23 07:54:30;;;;;;;31.33;14.57;;;1.90;89.60;;;;;;5029166;28;20263;-75
2023/01/23 07:56:56;;;;;;;29.57;13.10;;;1.90;89.50;;;;;;5035392;28;20185;-78
2023/01/23 07:59:22;;;;;;;29.00;12.57;;;1.90;89.30;;;;;;5026470;28;20205;-79
2023/01/23 08:01:49;;;;;;;27.40;12.67;;;1.90;89.50;;;;;;5028638;28;20224;-76
2023/01/23 08:04:15;;;;;;;31.05;13.30;;;1.90;89.30;;;;;;5025473;28;20581;-78
2023/01/23 08:06:40;;;;;;;33.03;12.63;;;1.80;89.20;;;;;;5024854;28;20181;-76
2023/01/23 08:09:06;;;;;;;32.03;13.60;;;1.80;89.30;;;;;;5020511;28;20577;-77
2023/01/23 08:11:32;;;;;;;29.23;12.73;;;1.70;89.30;;;;;;5033141;28;20233;-77
2023/01/23 08:13:57;;;;;;;33.50;13.47;;;1.70;89.60;;;;;;5029869;28;20178;-78
2023/01/23 08:16:23;;;;;;;39.70;13.70;;;1.70;89.70;;;;;;5028473;28;20185;-78
2023/01/23 08:18:49;;;;;;;34.40;13.70;;;1.70;89.70;;;;;;5031316;28;20273;-77
2023/01/23 08:21:14;;;;;;;32.83;13.50;;;1.70;90.10;;;;;;5032866;28;20586;-76
2023/01/23 08:23:40;;;;;;;34.93;14.30;;;1.70;90.20;;;;;;5033428;28;20240;-78
2023/01/23 08:26:07;;;;;;;40.10;14.60;;;1.80;90.30;;;;;;5037774;28;20178;-76
2023/01/23 08:28:33;;;;;;;34.60;14.15;;;1.80;89.90;;;;;;5032750;28;20300;-78
2023/01/23 08:31:04;;;;;;;29.92;12.88;;;1.80;89.70;;;;;;5026690;28;20273;-77
2023/01/23 08:33:31;;;;;;;33.53;14.20;;;1.80;89.60;;;;;;5026221;28;20267;-77
2023/01/23 08:35:57;;;;;;;31.85;14.93;;;1.80;89.60;;;;;;5025870;28;20182;-78
2023/01/23 08:38:24;;;;;;;33.00;13.23;;;1.80;89.30;;;;;;5025826;28;20201;-76
2023/01/23 08:40:51;;;;;;;35.15;14.50;;;1.70;89.20;;;;;;5019714;28;20417;-76
2023/01/23 08:43:18;;;;;;;32.97;13.43;;;1.80;89.50;;;;;;5030474;28;20185;-77
2023/01/23 08:45:52;;;;;;;34.05;15.43;;;1.80;89.30;;;;;;5029553;28;20232;-78
2023/01/23 08:48:18;;;;;;;34.63;14.88;;;1.80;89.20;;;;;;5029920;28;20181;-76
2023/01/23 08:50:44;;;;;;;34.95;14.32;;;1.70;89.20;;;;;;5038117;28;20190;-78
2023/01/23 08:53:11;;;;;;;35.83;14.03;;;1.80;89.20;;;;;;5035932;28;20208;-77
2023/01/23 08:55:37;;;;;;;29.92;12.50;;;1.80;89.00;;;;;;5029682;28;20415;-77
2023/01/23 08:58:04;;;;;;;30.63;13.85;;;1.80;88.90;;;;;;5029457;28;20217;-76
2023/01/23 09:00:30;;;;;;;33.80;14.02;;;1.80;88.30;;;;;;5028766;28;20565;-78
2023/01/23 09:02:59;;;;;;;38.00;13.10;;;1.80;87.80;;;;;;5031209;28;20265;-77
2023/01/23 09:05:26;;;;;;;32.45;13.38;;;1.90;87.70;;;;;;5033051;28;20192;-78
2023/01/23 09:07:51;;;;;;;30.02;12.65;;;1.80;86.90;;;;;;5035322;28;20193;-78
2023/01/23 09:10:17;;;;;;;29.83;13.30;;;1.90;86.90;;;;;;5028680;28;21028;-77
2023/01/23 09:12:42;;;;;;;27.20;13.20;;;1.90;86.80;;;;;;5029460;28;20779;-76
2023/01/23 09:15:09;;;;;;;30.77;13.43;;;2.00;86.50;;;;;;5030051;28;20184;-76
2023/01/23 09:17:35;;;;;;;25.85;11.52;;;2.00;86.50;;;;;;5032901;28;20181;-76
2023/01/23 09:20:00;;;;;;;29.73;13.20;;;2.10;85.60;;;;;;5028274;28;20211;-77
2023/01/23 09:22:36;;;;;;;34.57;12.30;;;2.10;85.00;;;;;;5032311;28;20427;-76
2023/01/23 09:25:01;;;;;;;25.65;11.52;;;2.10;84.00;;;;;;5031686;28;20189;-77
2023/01/23 09:27:27;;;;;;;25.90;10.90;;;2.10;84.10;;;;;;5026530;28;20215;-77
2023/01/23 09:29:52;;;;;;;26.07;10.20;;;2.00;83.30;;;;;;5026547;28;20466;-77
2023/01/23 09:32:18;;;;;;;22.00;9.93;;;2.00;83.10;;;;;;5019549;28;20228;-77
2023/01/23 09:34:47;;;;;;;23.00;11.10;;;2.00;82.50;;;;;;5031483;28;20268;-77
2023/01/23 09:37:13;;;;;;;26.42;11.70;;;2.00;82.40;;;;;;5024353;28;20181;-76
2023/01/23 09:39:40;;;;;;;24.88;11.57;;;2.00;81.80;;;;;;5025428;28;20207;-77
2023/01/23 09:42:09;;;;;;;27.17;11.10;;;2.00;81.90;;;;;;5031922;28;20653;-77
2023/01/23 09:44:47;;;;;;;28.02;10.90;;;2.00;82.10;;;;;;5031809;28;20185;-76
2023/01/23 09:47:26;;;;;;;27.13;11.50;;;2.00;82.10;;;;;;5030463;28;20185;-77
2023/01/23 09:50:00;;;;;;;20.63;10.35;;;2.00;81.90;;;;;;5031033;28;20239;-77
2023/01/23 09:52:47;;;;;;;22.38;10.68;;;2.00;81.90;;;;;;5030934;28;20251;-76
2023/01/23 09:55:19;;;;;;;27.27;10.80;;;2.10;81.70;;;;;;5028759;28;20264;-77
2023/01/23 09:57:56;;;;;;;22.58;10.40;;;2.00;81.50;;;;;;5031697;28;20204;-77
2023/01/23 10:00:31;;;;;;;25.75;10.82;;;2.00;81.50;;;;;;5023950;28;20261;-76
2023/01/23 10:03:00;;;;;;;18.83;9.25;;;2.10;81.50;;;;;;5040535;28;20181;-77
2023/01/23 10:06:10;;;;;;;23.35;10.55;;;2.10;81.20;;;;;;5042148;28;20207;-77
2023/01/23 10:08:54;;;;;;;22.25;10.98;;;2.20;81.40;;;;;;5016280;28;20210;-76
2023/01/23 10:11:44;;;;;;;23.95;11.32;;;2.30;81.50;;;;;;5032345;28;20205;-78
2023/01/23 10:14:38;;;;;;;23.90;10.57;;;2.40;81.40;;;;;;5029785;28;20264;-77
2023/01/23 10:17:16;;;;;;;22.30;10.73;;;2.50;80.80;;;;;;5029615;28;20619;-77
2023/01/23 10:20:00;;;;;;;28.58;11.60;;;2.60;80.50;;;;;;5028102;28;20211;-77
2023/01/23 10:22:28;;;;;;;21.02;10.07;;;2.70;79.70;;;;;;5030066;28;20565;-76
2023/01/23 10:24:56;;;;;;;25.58;10.48;;;2.80;79.50;;;;;;5028410;28;20193;-76
2023/01/23 10:27:37;;;;;;;23.65;10.63;;;2.60;79.00;;;;;;5034267;28;20499;-76
2023/01/23 10:30:12;;;;;;;21.40;10.55;;;2.40;79.70;;;;;;5030520;28;20205;-77
2023/01/23 10:32:58;;;;;;;25.02;11.07;;;2.40;80.60;;;;;;5030421;28;20208;-77
2023/01/23 10:35:28;;;;;;;24.77;10.80;;;2.60;80.50;;;;;;5035117;28;20180;-76
2023/01/23 10:38:08;;;;;;;24.65;10.38;;;2.70;80.00;;;;;;5032903;28;20596;-77
2023/01/23 10:43:20;;;;;;;25.83;11.27;;;2.50;80.30;;;;;;5033619;28;20204;-77
2023/01/23 10:45:47;;;;;;;18.52;9.77;;;2.50;80.30;;;;;;5029223;28;20679;-77
2023/01/23 10:48:31;;;;;;;24.27;11.48;;;2.40;80.50;;;;;;5024396;28;20188;-75
2023/01/23 10:50:57;;;;;;;22.65;10.45;;;2.40;80.60;;;;;;5030313;28;20436;-77
2023/01/23 10:53:24;;;;;;;24.70;11.15;;;2.40;81.10;;;;;;5031339;28;20306;-77
2023/01/23 10:55:52;;;;;;;19.42;10.38;;;2.40;81.40;;;;;;5030755;28;20185;-77
2023/01/23 10:58:37;;;;;;;26.25;11.48;;;2.50;81.50;;;;;;5025447;28;20201;-77
2023/01/23 11:01:03;;;;;;;23.23;10.82;;;2.60;80.80;;;;;;5028341;28;20235;-77
2023/01/23 11:03:32;;;;;;;21.42;10.70;;;2.40;80.30;;;;;;5022682;28;20189;-77
2023/01/23 11:06:07;;;;;;;21.58;10.40;;;2.30;80.80;;;;;;5025631;28;20213;-75
2023/01/23 11:08:37;;;;;;;23.38;11.13;;;2.20;80.80;;;;;;5026420;28;20213;-78
2023/01/23 11:11:15;;;;;;;26.67;11.68;;;2.30;81.40;;;;;;5029764;28;20212;-78
2023/01/23 11:13:43;;;;;;;25.00;12.52;;;2.30;81.50;;;;;;5031806;28;20185;-77
2023/01/23 11:16:18;;;;;;;24.63;11.48;;;2.30;81.40;;;;;;5030209;28;20192;-77
2023/01/23 11:19:20;;;;;;;26.75;11.45;;;2.40;81.50;;;;;;5026366;28;20977;-77
2023/01/23 11:21:56;;;;;;;29.42;12.13;;;2.50;81.40;;;;;;5018512;28;20196;-77
2023/01/23 11:24:25;;;;;;;22.90;10.35;;;2.50;81.20;;;;;;5030896;28;20236;-77
2023/01/23 11:27:25;;;;;;;28.17;13.10;;;2.60;81.10;;;;;;5032454;28;20196;-77
2023/01/23 11:30:21;;;;;;;25.08;10.50;;;2.60;80.60;;;;;;5020365;28;20201;-78
2023/01/23 11:33:12;;;;;;;26.63;11.70;;;2.50;80.90;;;;;;5022835;28;20271;-77
2023/01/23 11:35:59;;;;;;;21.65;10.48;;;2.50;81.10;;;;;;5029405;28;20173;-77
2023/01/23 11:38:30;;;;;;;24.30;10.75;;;2.40;80.90;;;;;;5027565;28;20208;-77
2023/01/23 11:40:55;;;;;;;28.40;11.93;;;2.40;81.80;;;;;;5030111;28;20199;-77
2023/01/23 11:43:21;;;;;;;25.73;11.50;;;2.40;81.50;;;;;;5034611;28;20300;-77
2023/01/23 11:46:00;;;;;;;22.40;11.43;;;2.40;81.70;;;;;;5031771;28;20188;-76
2023/01/23 11:48:46;;;;;;;23.15;11.13;;;2.50;81.80;;;;;;5030782;28;20288;-76
2023/01/23 11:51:27;;;;;;;27.85;11.60;;;2.50;81.40;;;;;;5032526;28;20264;-77
2023/01/23 11:54:31;;;;;;;29.95;12.98;;;2.30;81.20;;;;;;5028849;28;20320;-77
2023/01/23 11:57:27;;;;;;;24.35;11.13;;;2.30;81.90;;;;;;5012827;28;20224;-76
2023/01/23 12:00:20;;;;;;;28.13;11.82;;;2.30;81.80;;;;;;5013131;28;20217;-77
2023/01/23 12:03:02;;;;;;;24.40;11.73;;;2.20;82.10;;;;;;5010765;28;20220;-78
2023/01/23 12:05:58;;;;;;;26.02;12.15;;;2.30;82.10;;;;;;5017524;28;20189;-77
2023/01/23 12:08:24;;;;;;;31.35;12.90;;;2.20;82.50;;;;;;5017209;28;20228;-76
2023/01/23 12:10:55;;;;;;;30.37;12.20;;;2.30;82.70;;;;;;5015631;28;20210;-78
2023/01/23 12:13:39;;;;;;;28.52;12.68;;;2.40;82.70;;;;;;5007131;28;20217;-78
2023/01/23 12:16:30;;;;;;;29.85;13.32;;;2.40;82.20;;;;;;5013474;28;20178;-78
2023/01/23 12:19:36;;;;;;;32.22;12.40;;;2.40;82.10;;;;;;5014269;28;20225;-77
2023/01/23 12:22:20;;;;;;;25.98;12.50;;;2.40;82.20;;;;;;4958965;29;20196;-77
2023/01/23 12:25:12;;;;;;;27.33;13.20;;;2.30;81.90;;;;;;4956999;29;20208;-76
2023/01/23 12:27:46;;;;;;;26.42;13.05;;;2.40;82.70;;;;;;4969803;28;20195;-76
2023/01/23 12:30:46;;;;;;;29.70;12.32;;;2.50;82.10;;;;;;4990024;28;20269;-79
2023/01/23 12:33:46;;;;;;;32.17;12.40;;;2.60;82.10;;;;;;4998576;28;20261;-77
2023/01/23 12:37:01;;;;;;;31.40;13.65;;;2.80;81.90;;;;;;4980045;28;20221;-78
2023/01/23 12:39:41;;;;;;;26.33;11.45;;;2.90;81.20;;;;;;5015287;28;20248;-77
2023/01/23 12:42:31;;;;;;;31.85;13.60;;;2.90;80.80;;;;;;5012804;28;20190;-78
2023/01/23 12:44:58;;;;;;;27.00;11.65;;;3.00;81.10;;;;;;5012320;28;20190;-76
2023/01/23 12:47:30;;;;;;;27.98;12.70;;;2.80;81.20;;;;;;5008935;28;20291;-77
2023/01/23 12:50:00;;;;;;;27.13;12.07;;;2.80;81.70;;;;;;5009027;28;20301;-77
2023/01/23 12:52:49;;;;;;;29.90;14.30;;;2.80;81.80;;;;;;5011433;28;20256;-77
2023/01/23 12:55:25;;;;;;;28.27;12.50;;;2.80;81.90;;;;;;5010471;28;20428;-78
2023/01/23 12:57:53;;;;;;;25.20;12.25;;;2.80;81.70;;;;;;5012970;28;21004;-77
2023/01/23 13:00:31;;;;;;;33.55;13.45;;;2.80;81.80;;;;;;5027134;28;20216;-77
2023/01/23 13:03:05;;;;;;;26.77;12.05;;;2.90;81.50;;;;;;5029021;28;20689;-77